Time;durP1;ratioP1;P1;durP2;ratioP2;P2;SDS_P1;SDS_P2;PMS_P1;PMS_P2;Temp;Humidity;BMP_temperature;BMP_pressure;BME280_temperature;BME280_humidity;BME280_pressure;Samples;Min_cycle;Max_cycle;Signal;HPM_P1;HPM_P2
2023/09/28 00:01:45;;;;;;;18.23;10.30;;;;;;;;;;6098349;23;20101;-73
2023/09/28 00:04:11;;;;;;;15.50;9.20;;;;;;;;;;6098016;23;20029;-74
2023/09/28 00:06:36;;;;;;;14.60;9.23;;;;;;;;;;6124074;23;20006;-74
2023/09/28 00:09:02;;;;;;;13.82;9.43;;;;;;;;;;6123809;23;20002;-73
2023/09/28 00:11:28;;;;;;;12.85;9.48;;;;;;;;;;6098087;23;20304;-74
2023/09/28 00:13:53;;;;;;;16.25;9.15;;;;;;;;;;6123597;23;20033;-73
2023/09/28 00:16:19;;;;;;;15.73;9.32;;;;;;;;;;6123746;23;20124;-74
2023/09/28 00:18:44;;;;;;;18.33;9.65;;;;;;;;;;6124093;23;20021;-73
2023/09/28 00:21:10;;;;;;;13.15;9.52;;;;;;;;;;6123713;23;20005;-73
2023/09/28 00:23:36;;;;;;;14.93;9.13;;;;;;;;;;6123908;23;20006;-73
2023/09/28 00:26:02;;;;;;;15.45;9.15;;;;;;;;;;6123643;23;20080;-75
2023/09/28 00:28:27;;;;;;;14.88;9.32;;;;;;;;;;6123954;23;20014;-72
2023/09/28 00:30:53;;;;;;;15.32;9.15;;;;;;;;;;6123581;23;20006;-74
2023/09/28 00:33:18;;;;;;;20.77;10.57;;;;;;;;;;6073608;23;20436;-74
2023/09/28 00:35:44;;;;;;;16.25;9.68;;;;;;;;;;6097395;23;20006;-74
2023/09/28 00:38:10;;;;;;;15.93;9.73;;;;;;;;;;6097331;23;20113;-74
2023/09/28 00:40:39;;;;;;;15.80;10.15;;;;;;;;;;6123919;23;20016;-74
2023/09/28 00:43:07;;;;;;;13.85;10.20;;;;;;;;;;6123696;23;20032;-74
2023/09/28 00:45:32;;;;;;;14.23;9.75;;;;;;;;;;6123554;23;19998;-74
2023/09/28 00:48:02;;;;;;;16.15;10.13;;;;;;;;;;6123587;23;20006;-74
2023/09/28 00:50:31;;;;;;;16.48;10.70;;;;;;;;;;6123299;23;20490;-75
2023/09/28 00:53:10;;;;;;;13.90;10.13;;;;;;;;;;6097361;23;20013;-75
2023/09/28 00:55:37;;;;;;;16.48;10.80;;;;;;;;;;6123599;23;20012;-74
2023/09/28 00:58:07;;;;;;;15.23;9.60;;;;;;;;;;6123359;23;20009;-73
2023/09/28 01:00:33;;;;;;;16.58;10.10;;;;;;;;;;6097439;23;20064;-75
2023/09/28 01:03:08;;;;;;;18.70;11.70;;;;;;;;;;6123410;23;20006;-74
2023/09/28 01:05:34;;;;;;;19.08;11.63;;;;;;;;;;6097654;23;20006;-74
2023/09/28 01:08:12;;;;;;;21.52;11.30;;;;;;;;;;6123728;23;20013;-74
2023/09/28 01:10:40;;;;;;;17.38;11.45;;;;;;;;;;6124855;23;20034;-75
2023/09/28 01:13:11;;;;;;;18.17;10.20;;;;;;;;;;6124151;23;20030;-73
2023/09/28 01:15:47;;;;;;;16.55;10.50;;;;;;;;;;6123402;23;20017;-75
2023/09/28 01:18:17;;;;;;;15.35;10.60;;;;;;;;;;6123661;23;20002;-74
2023/09/28 01:20:47;;;;;;;17.95;10.20;;;;;;;;;;6123665;23;20006;-75
2023/09/28 01:23:13;;;;;;;19.15;10.93;;;;;;;;;;6123841;23;20065;-75
2023/09/28 01:25:39;;;;;;;14.60;9.98;;;;;;;;;;6098766;23;20009;-73
2023/09/28 01:28:10;;;;;;;19.23;11.38;;;;;;;;;;6129067;23;20002;-74
2023/09/28 01:30:35;;;;;;;18.23;10.73;;;;;;;;;;6126243;23;20005;-75
2023/09/28 01:33:02;;;;;;;15.95;11.00;;;;;;;;;;6098660;23;20081;-74
2023/09/28 01:35:28;;;;;;;16.17;10.45;;;;;;;;;;6124876;23;20458;-74
2023/09/28 01:38:12;;;;;;;17.60;11.13;;;;;;;;;;6123490;23;20095;-74
2023/09/28 01:40:38;;;;;;;21.25;11.30;;;;;;;;;;6123555;23;20032;-74
2023/09/28 01:43:04;;;;;;;17.90;10.75;;;;;;;;;;6123130;23;20412;-74
2023/09/28 01:45:30;;;;;;;15.27;10.35;;;;;;;;;;6097505;23;20010;-75
2023/09/28 01:47:55;;;;;;;15.50;10.25;;;;;;;;;;6122921;23;20017;-75
2023/09/28 01:50:21;;;;;;;17.58;10.35;;;;;;;;;;6096549;23;20490;-74
2023/09/28 01:52:47;;;;;;;18.45;10.52;;;;;;;;;;6096598;23;20009;-73
2023/09/28 01:55:12;;;;;;;15.43;10.38;;;;;;;;;;6121969;23;20001;-75
2023/09/28 01:57:38;;;;;;;15.90;10.57;;;;;;;;;;6121579;23;20444;-75
2023/09/28 02:00:14;;;;;;;14.02;10.38;;;;;;;;;;6122829;23;20056;-75
2023/09/28 02:02:41;;;;;;;18.00;10.13;;;;;;;;;;6096503;23;20038;-75
2023/09/28 02:05:07;;;;;;;12.73;10.20;;;;;;;;;;6122952;23;20277;-75
2023/09/28 02:07:34;;;;;;;16.80;10.82;;;;;;;;;;6122949;23;20006;-75
2023/09/28 02:10:00;;;;;;;16.48;10.65;;;;;;;;;;6096290;23;20060;-75
2023/09/28 02:12:27;;;;;;;16.75;10.20;;;;;;;;;;6122872;23;20033;-75
2023/09/28 02:14:56;;;;;;;17.30;12.00;;;;;;;;;;6096837;23;20017;-74
2023/09/28 02:17:22;;;;;;;16.25;10.07;;;;;;;;;;6122789;23;20022;-73
2023/09/28 02:19:47;;;;;;;18.13;11.40;;;;;;;;;;6123123;23;20082;-74
2023/09/28 02:22:13;;;;;;;14.75;10.20;;;;;;;;;;6096549;23;20006;-74
2023/09/28 02:24:39;;;;;;;15.32;9.55;;;;;;;;;;6096716;23;20002;-74
2023/09/28 02:27:04;;;;;;;12.85;9.23;;;;;;;;;;6122640;23;20005;-73
2023/09/28 02:29:30;;;;;;;15.40;10.07;;;;;;;;;;6122873;23;20037;-74
2023/09/28 02:31:56;;;;;;;15.77;10.68;;;;;;;;;;6121272;23;20101;-74
2023/09/28 02:34:21;;;;;;;15.02;10.57;;;;;;;;;;6121757;23;20002;-74
2023/09/28 02:36:47;;;;;;;13.48;10.25;;;;;;;;;;6122152;23;20375;-74
2023/09/28 02:39:13;;;;;;;16.02;9.60;;;;;;;;;;6122689;23;20002;-74
2023/09/28 02:41:38;;;;;;;18.83;10.50;;;;;;;;;;6122973;23;20001;-74
2023/09/28 02:44:04;;;;;;;14.18;9.52;;;;;;;;;;6122452;23;19998;-74
2023/09/28 02:46:29;;;;;;;16.92;10.35;;;;;;;;;;6122551;23;20014;-74
2023/09/28 02:48:55;;;;;;;18.10;9.93;;;;;;;;;;6122738;23;20005;-73
2023/09/28 02:51:22;;;;;;;16.88;10.98;;;;;;;;;;6122832;23;20435;-75
2023/09/28 02:53:47;;;;;;;15.50;10.10;;;;;;;;;;6122799;23;20639;-74
2023/09/28 02:56:13;;;;;;;15.27;10.05;;;;;;;;;;6122834;23;20029;-74
2023/09/28 02:58:38;;;;;;;20.10;10.95;;;;;;;;;;6096624;23;20006;-73
2023/09/28 03:01:04;;;;;;;13.80;9.77;;;;;;;;;;6122365;23;20051;-74
2023/09/28 03:03:30;;;;;;;17.60;10.48;;;;;;;;;;6096834;23;20486;-74
2023/09/28 03:05:56;;;;;;;14.98;10.73;;;;;;;;;;6124328;23;20400;-73
2023/09/28 03:08:22;;;;;;;19.55;10.93;;;;;;;;;;6122147;23;20013;-74
2023/09/28 03:10:47;;;;;;;13.32;9.85;;;;;;;;;;6096360;23;20009;-73
2023/09/28 03:13:13;;;;;;;18.35;10.10;;;;;;;;;;6122138;23;20020;-73
2023/09/28 03:15:43;;;;;;;19.42;11.07;;;;;;;;;;6123898;23;20013;-74
2023/09/28 03:18:10;;;;;;;18.42;11.80;;;;;;;;;;6124504;23;20006;-74
2023/09/28 03:20:35;;;;;;;17.02;10.65;;;;;;;;;;6124593;23;20008;-73
2023/09/28 03:23:01;;;;;;;20.00;10.50;;;;;;;;;;6124299;23;20041;-74
2023/09/28 03:25:26;;;;;;;17.10;10.82;;;;;;;;;;6124711;23;20006;-74
2023/09/28 03:27:53;;;;;;;19.65;11.07;;;;;;;;;;6125269;23;20406;-74
2023/09/28 03:30:24;;;;;;;14.45;10.93;;;;;;;;;;6125367;23;20001;-74
2023/09/28 03:32:50;;;;;;;17.60;10.65;;;;;;;;;;6126387;23;20005;-74
2023/09/28 03:35:17;;;;;;;17.92;10.50;;;;;;;;;;6100560;23;20009;-74
2023/09/28 03:37:44;;;;;;;16.27;11.18;;;;;;;;;;6126798;23;19998;-73
2023/09/28 03:40:11;;;;;;;20.15;11.07;;;;;;;;;;6126622;23;20049;-74
2023/09/28 03:42:49;;;;;;;20.88;10.70;;;;;;;;;;6125768;23;20001;-73
2023/09/28 03:45:20;;;;;;;27.15;11.55;;;;;;;;;;6098351;23;20077;-74
2023/09/28 03:47:48;;;;;;;16.67;11.40;;;;;;;;;;6098174;23;20006;-74
2023/09/28 03:50:14;;;;;;;19.23;10.45;;;;;;;;;;6124178;23;20006;-73
2023/09/28 03:52:41;;;;;;;14.45;10.82;;;;;;;;;;6124427;23;20544;-74
2023/09/28 03:55:14;;;;;;;18.05;11.55;;;;;;;;;;6124190;23;20436;-73
2023/09/28 03:57:42;;;;;;;17.60;10.90;;;;;;;;;;6124372;23;20033;-74
2023/09/28 04:00:12;;;;;;;16.17;10.13;;;;;;;;;;6124244;23;20009;-74
2023/09/28 04:02:38;;;;;;;18.27;11.38;;;;;;;;;;6099191;23;20010;-74
2023/09/28 04:05:05;;;;;;;15.07;10.00;;;;;;;;;;6124311;23;20061;-74
2023/09/28 04:07:30;;;;;;;16.80;10.98;;;;;;;;;;6124792;23;20016;-74
2023/09/28 04:09:56;;;;;;;19.10;10.27;;;;;;;;;;6124167;23;20037;-73
2023/09/28 04:12:22;;;;;;;15.07;10.02;;;;;;;;;;6124504;23;19998;-73
2023/09/28 04:14:47;;;;;;;17.05;11.18;;;;;;;;;;6098287;23;20021;-74
2023/09/28 04:17:13;;;;;;;18.88;11.80;;;;;;;;;;6097367;23;20177;-73
2023/09/28 04:19:39;;;;;;;17.27;11.30;;;;;;;;;;6097974;23;20099;-73
2023/09/28 04:22:04;;;;;;;20.00;11.27;;;;;;;;;;6123796;23;20036;-75
2023/09/28 04:24:30;;;;;;;15.50;10.93;;;;;;;;;;6097418;23;20081;-74
2023/09/28 04:26:58;;;;;;;22.83;10.77;;;;;;;;;;6124008;23;20030;-74
2023/09/28 04:29:24;;;;;;;14.15;10.48;;;;;;;;;;6097767;23;20006;-73
2023/09/28 04:31:50;;;;;;;16.83;9.65;;;;;;;;;;6124096;23;20072;-74
2023/09/28 04:34:16;;;;;;;15.50;9.55;;;;;;;;;;6097982;23;20006;-74
2023/09/28 04:36:43;;;;;;;13.70;9.73;;;;;;;;;;6124122;23;20002;-74
2023/09/28 04:39:10;;;;;;;15.20;9.82;;;;;;;;;;6098185;23;20006;-75
2023/09/28 04:41:39;;;;;;;16.48;10.43;;;;;;;;;;6074827;23;20432;-75
2023/09/28 04:44:06;;;;;;;15.15;9.27;;;;;;;;;;6098718;23;20385;-73
2023/09/28 04:46:33;;;;;;;16.67;10.00;;;;;;;;;;6098547;23;20356;-73
2023/09/28 04:48:59;;;;;;;17.52;9.70;;;;;;;;;;6124011;23;20006;-75
2023/09/28 04:51:24;;;;;;;12.25;9.63;;;;;;;;;;6125041;23;20002;-75
2023/09/28 04:53:50;;;;;;;19.00;10.15;;;;;;;;;;6124949;23;20006;-76
2023/09/28 04:56:15;;;;;;;20.25;10.40;;;;;;;;;;6124659;23;20419;-76
2023/09/28 04:58:41;;;;;;;15.98;10.80;;;;;;;;;;6098289;23;20016;-75
2023/09/28 05:01:07;;;;;;;19.42;10.25;;;;;;;;;;6124210;23;20324;-76
2023/09/28 05:03:33;;;;;;;17.50;11.10;;;;;;;;;;6097927;23;20002;-75
2023/09/28 05:05:58;;;;;;;17.40;9.45;;;;;;;;;;6122063;23;20031;-72
2023/09/28 05:08:25;;;;;;;15.50;10.18;;;;;;;;;;6097346;23;20025;-73
2023/09/28 05:10:51;;;;;;;36.85;26.75;;;;;;;;;;6123436;23;20036;-73
2023/09/28 05:13:17;;;;;;;20.75;13.52;;;;;;;;;;6097530;23;20017;-72
2023/09/28 05:15:42;;;;;;;18.60;11.65;;;;;;;;;;6097698;23;20323;-72
2023/09/28 05:18:08;;;;;;;19.45;11.82;;;;;;;;;;6123725;23;20073;-73
2023/09/28 05:20:34;;;;;;;15.10;9.88;;;;;;;;;;6123947;23;20105;-73
2023/09/28 05:22:59;;;;;;;13.52;9.30;;;;;;;;;;6123951;23;20389;-73
2023/09/28 05:25:25;;;;;;;17.23;9.82;;;;;;;;;;6097931;23;20407;-73
2023/09/28 05:27:51;;;;;;;18.48;9.98;;;;;;;;;;6125486;23;20458;-71
2023/09/28 05:30:17;;;;;;;14.52;10.32;;;;;;;;;;6098424;23;20010;-74
2023/09/28 05:32:43;;;;;;;17.48;10.80;;;;;;;;;;6096761;23;20013;-71
2023/09/28 05:35:08;;;;;;;19.13;11.77;;;;;;;;;;6097684;23;20010;-72
2023/09/28 05:37:34;;;;;;;18.65;10.27;;;;;;;;;;6099172;23;20498;-72
2023/09/28 05:40:06;;;;;;;13.88;9.52;;;;;;;;;;6125155;23;20332;-73
2023/09/28 05:42:34;;;;;;;16.92;10.05;;;;;;;;;;6098071;23;20010;-72
2023/09/28 05:45:00;;;;;;;16.45;9.95;;;;;;;;;;6097904;23;20009;-71
2023/09/28 05:47:26;;;;;;;15.10;10.18;;;;;;;;;;6096913;23;20071;-73
2023/09/28 05:49:52;;;;;;;14.68;9.40;;;;;;;;;;6097175;23;20110;-71
2023/09/28 05:52:18;;;;;;;16.35;10.38;;;;;;;;;;6096510;23;20002;-74
2023/09/28 05:54:45;;;;;;;16.40;10.13;;;;;;;;;;6123273;23;20037;-73
2023/09/28 05:57:13;;;;;;;18.92;10.70;;;;;;;;;;6123040;23;20041;-73
2023/09/28 05:59:39;;;;;;;19.30;10.10;;;;;;;;;;6122960;23;19997;-76
2023/09/28 06:02:05;;;;;;;16.35;11.02;;;;;;;;;;6123460;23;20008;-76
2023/09/28 06:04:31;;;;;;;17.67;10.40;;;;;;;;;;6098221;23;20036;-75
2023/09/28 06:06:57;;;;;;;18.65;10.13;;;;;;;;;;6098110;23;20016;-75
2023/09/28 06:09:22;;;;;;;15.90;9.85;;;;;;;;;;6124055;23;20475;-75
2023/09/28 06:11:48;;;;;;;16.48;9.30;;;;;;;;;;6125402;23;20332;-76
2023/09/28 06:14:15;;;;;;;15.77;10.73;;;;;;;;;;6125743;23;20029;-75
2023/09/28 06:16:44;;;;;;;17.58;9.95;;;;;;;;;;6100066;23;20036;-77
2023/09/28 06:19:11;;;;;;;16.30;9.85;;;;;;;;;;6100616;23;20018;-76
2023/09/28 06:21:38;;;;;;;17.42;10.63;;;;;;;;;;6125353;23;20030;-76
2023/09/28 06:24:04;;;;;;;18.08;10.02;;;;;;;;;;6123605;23;20056;-76
2023/09/28 06:26:29;;;;;;;13.77;9.57;;;;;;;;;;6098553;23;20092;-76
2023/09/28 06:28:55;;;;;;;16.00;10.10;;;;;;;;;;6098679;23;20009;-76
2023/09/28 06:31:20;;;;;;;14.57;9.98;;;;;;;;;;6126849;23;20396;-76
2023/09/28 06:33:46;;;;;;;15.63;9.70;;;;;;;;;;6100483;23;20009;-78
2023/09/28 06:36:12;;;;;;;15.00;9.57;;;;;;;;;;6100667;23;20370;-78
2023/09/28 06:38:37;;;;;;;17.65;10.18;;;;;;;;;;6098556;23;20006;-76
2023/09/28 06:41:03;;;;;;;16.52;11.48;;;;;;;;;;6098512;23;20430;-78
2023/09/28 06:43:29;;;;;;;16.77;9.65;;;;;;;;;;6097680;23;20010;-75
2023/09/28 06:45:58;;;;;;;14.63;10.13;;;;;;;;;;6123834;23;20424;-75
2023/09/28 06:48:24;;;;;;;22.45;10.43;;;;;;;;;;6124638;23;20001;-75
2023/09/28 06:50:50;;;;;;;22.58;10.45;;;;;;;;;;6098269;23;20030;-76
2023/09/28 06:53:16;;;;;;;14.13;9.50;;;;;;;;;;6097978;23;20005;-75
2023/09/28 06:55:44;;;;;;;12.82;9.48;;;;;;;;;;6124125;23;20013;-77
2023/09/28 06:58:13;;;;;;;18.92;9.48;;;;;;;;;;6125391;23;20024;-76
2023/09/28 07:00:39;;;;;;;16.77;9.73;;;;;;;;;;6098033;23;20354;-77
2023/09/28 07:03:05;;;;;;;15.18;9.80;;;;;;;;;;6096951;23;20404;-75
2023/09/28 07:05:33;;;;;;;14.57;9.23;;;;;;;;;;6095779;23;20013;-76
2023/09/28 07:08:00;;;;;;;11.88;8.27;;;;;;;;;;6096298;23;20339;-75
2023/09/28 07:10:26;;;;;;;13.45;9.30;;;;;;;;;;6121517;23;20002;-77
2023/09/28 07:12:51;;;;;;;12.13;8.45;;;;;;;;;;6122512;23;20002;-76
2023/09/28 07:15:17;;;;;;;15.10;8.63;;;;;;;;;;6121960;23;20041;-78
2023/09/28 07:17:43;;;;;;;15.88;9.60;;;;;;;;;;6096020;23;20053;-80
2023/09/28 07:20:11;;;;;;;12.90;8.77;;;;;;;;;;6096465;23;20013;-78
2023/09/28 07:22:37;;;;;;;17.20;9.40;;;;;;;;;;6124659;23;20458;-76
2023/09/28 07:25:03;;;;;;;16.35;9.32;;;;;;;;;;6097002;23;20093;-77
2023/09/28 07:27:32;;;;;;;15.52;8.70;;;;;;;;;;6123120;23;20027;-76
2023/09/28 07:29:59;;;;;;;14.30;10.18;;;;;;;;;;6122065;23;20063;-78
2023/09/28 07:32:29;;;;;;;15.48;9.38;;;;;;;;;;6095644;23;20014;-77
2023/09/28 07:34:54;;;;;;;13.15;8.98;;;;;;;;;;6122127;23;20412;-76
2023/09/28 07:37:20;;;;;;;15.65;8.80;;;;;;;;;;6096818;23;20013;-76
2023/09/28 07:39:46;;;;;;;11.65;8.50;;;;;;;;;;6097661;23;20010;-77
2023/09/28 07:42:13;;;;;;;14.32;9.23;;;;;;;;;;6122588;23;20010;-77
2023/09/28 07:44:40;;;;;;;17.45;9.82;;;;;;;;;;6121381;23;20002;-75
2023/09/28 07:47:08;;;;;;;21.88;9.60;;;;;;;;;;6096744;23;20009;-75
2023/09/28 07:49:33;;;;;;;15.65;9.45;;;;;;;;;;6095628;23;20523;-76
2023/09/28 07:51:59;;;;;;;18.50;10.38;;;;;;;;;;6122325;23;20029;-77
2023/09/28 07:54:24;;;;;;;11.85;8.50;;;;;;;;;;6122378;23;19998;-78
2023/09/28 07:56:50;;;;;;;18.42;9.13;;;;;;;;;;6097090;23;20304;-74
2023/09/28 07:59:15;;;;;;;15.48;10.38;;;;;;;;;;6096476;23;20061;-76
2023/09/28 08:01:42;;;;;;;21.05;9.27;;;;;;;;;;6122840;23;20006;-77
2023/09/28 08:04:09;;;;;;;20.65;8.85;;;;;;;;;;6124182;23;20347;-75
2023/09/28 08:06:35;;;;;;;15.57;8.80;;;;;;;;;;6097153;23;20013;-75
2023/09/28 08:09:01;;;;;;;13.45;8.75;;;;;;;;;;6123450;23;20014;-76
2023/09/28 08:11:28;;;;;;;17.92;9.40;;;;;;;;;;6124652;23;20002;-75
2023/09/28 08:13:53;;;;;;;20.38;9.90;;;;;;;;;;6098807;23;20113;-75
2023/09/28 08:16:19;;;;;;;18.27;9.77;;;;;;;;;;6123827;23;20449;-75
2023/09/28 08:18:46;;;;;;;13.82;8.43;;;;;;;;;;6124612;23;20006;-76
2023/09/28 08:21:12;;;;;;;27.23;8.88;;;;;;;;;;6124598;23;20085;-75
2023/09/28 08:23:40;;;;;;;19.15;9.48;;;;;;;;;;6098731;23;20033;-76
2023/09/28 08:26:05;;;;;;;17.95;9.07;;;;;;;;;;6098600;23;20009;-75
2023/09/28 08:28:32;;;;;;;18.88;9.02;;;;;;;;;;6097443;23;20399;-74
2023/09/28 08:31:03;;;;;;;17.45;9.15;;;;;;;;;;6123967;23;20621;-75
2023/09/28 08:33:29;;;;;;;13.68;8.30;;;;;;;;;;6123852;23;20002;-75
2023/09/28 08:35:55;;;;;;;12.55;7.88;;;;;;;;;;6123409;23;20268;-75
2023/09/28 08:38:20;;;;;;;14.40;6.80;;;;;;;;;;6097117;23;20018;-74
2023/09/28 08:40:49;;;;;;;15.95;7.35;;;;;;;;;;6123160;23;20072;-76
2023/09/28 08:43:19;;;;;;;13.70;7.47;;;;;;;;;;6097494;23;20009;-75
2023/09/28 08:45:47;;;;;;;20.63;9.77;;;;;;;;;;6096793;23;20415;-75
2023/09/28 08:48:14;;;;;;;14.98;7.97;;;;;;;;;;6123250;23;20005;-74
2023/09/28 08:50:42;;;;;;;14.13;7.80;;;;;;;;;;6096882;23;20017;-75
2023/09/28 08:53:08;;;;;;;15.88;6.68;;;;;;;;;;6123446;23;20013;-75
2023/09/28 08:55:36;;;;;;;11.90;6.95;;;;;;;;;;6097105;23;20034;-75
2023/09/28 08:58:02;;;;;;;7.93;6.07;;;;;;;;;;6097370;23;20292;-75
2023/09/28 09:00:29;;;;;;;13.35;7.45;;;;;;;;;;6122710;23;20006;-74
2023/09/28 09:02:58;;;;;;;13.25;7.80;;;;;;;;;;6123111;23;20006;-74
2023/09/28 09:05:29;;;;;;;9.98;6.88;;;;;;;;;;6123151;23;20013;-75
2023/09/28 09:07:56;;;;;;;13.98;6.93;;;;;;;;;;6125273;23;20120;-75
2023/09/28 09:10:26;;;;;;;9.63;6.32;;;;;;;;;;6098994;23;20005;-75
2023/09/28 09:12:52;;;;;;;12.20;6.80;;;;;;;;;;6126132;23;20032;-76
2023/09/28 09:15:18;;;;;;;14.25;6.60;;;;;;;;;;6127674;23;20006;-75
2023/09/28 09:17:44;;;;;;;13.68;7.07;;;;;;;;;;6106468;23;20068;-74
2023/09/28 09:20:10;;;;;;;11.57;7.72;;;;;;;;;;6131329;23;20049;-75
2023/09/28 09:22:36;;;;;;;11.70;7.53;;;;;;;;;;6096838;23;20463;-74
2023/09/28 09:25:02;;;;;;;10.93;6.88;;;;;;;;;;6124338;23;20006;-75
2023/09/28 09:27:29;;;;;;;14.23;7.22;;;;;;;;;;6097432;23;20057;-74
2023/09/28 09:30:14;;;;;;;12.57;6.97;;;;;;;;;;6122958;23;20005;-75
2023/09/28 09:32:42;;;;;;;14.95;7.78;;;;;;;;;;6095644;23;20489;-75
2023/09/28 09:35:10;;;;;;;13.35;7.32;;;;;;;;;;6096045;23;19998;-75
2023/09/28 09:37:41;;;;;;;9.35;6.63;;;;;;;;;;6122457;23;20033;-75
2023/09/28 09:40:12;;;;;;;10.63;7.35;;;;;;;;;;6123503;23;20446;-75
2023/09/28 09:42:38;;;;;;;10.40;6.30;;;;;;;;;;6097339;23;20408;-75
2023/09/28 09:45:07;;;;;;;10.88;5.93;;;;;;;;;;6123162;23;20005;-74
2023/09/28 09:47:33;;;;;;;19.05;6.68;;;;;;;;;;6098374;23;20005;-74
2023/09/28 09:50:00;;;;;;;13.50;6.63;;;;;;;;;;6125711;23;20064;-76
2023/09/28 09:52:28;;;;;;;9.55;6.80;;;;;;;;;;6127028;23;20001;-75
2023/09/28 09:54:53;;;;;;;11.75;6.65;;;;;;;;;;6102210;23;20005;-74
2023/09/28 09:57:20;;;;;;;11.45;6.75;;;;;;;;;;6099174;23;20014;-74
2023/09/28 09:59:49;;;;;;;9.40;6.53;;;;;;;;;;6096346;23;20010;-74
2023/09/28 10:02:25;;;;;;;9.98;7.25;;;;;;;;;;6122055;23;20333;-75
2023/09/28 10:04:55;;;;;;;10.02;6.95;;;;;;;;;;6096335;23;20191;-75
2023/09/28 10:07:30;;;;;;;16.23;7.40;;;;;;;;;;6096023;23;20049;-76
2023/09/28 10:09:56;;;;;;;6.78;6.07;;;;;;;;;;6096358;23;20013;-74
2023/09/28 10:12:24;;;;;;;13.60;5.80;;;;;;;;;;6121550;23;20012;-75
2023/09/28 10:14:49;;;;;;;10.73;6.90;;;;;;;;;;6095981;23;20065;-75
2023/09/28 10:17:15;;;;;;;8.48;6.97;;;;;;;;;;6121414;23;20030;-73
2023/09/28 10:19:41;;;;;;;11.05;6.18;;;;;;;;;;6096059;23;20014;-75
2023/09/28 10:22:09;;;;;;;15.30;6.10;;;;;;;;;;6121911;23;20517;-74
2023/09/28 10:24:35;;;;;;;11.88;7.35;;;;;;;;;;6094734;23;20019;-74
2023/09/28 10:27:09;;;;;;;12.60;6.25;;;;;;;;;;6095895;23;20014;-74
2023/09/28 10:29:35;;;;;;;11.30;6.65;;;;;;;;;;6122314;23;20384;-74
2023/09/28 10:32:03;;;;;;;14.45;6.40;;;;;;;;;;6122343;23;20013;-75
2023/09/28 10:34:29;;;;;;;15.48;6.82;;;;;;;;;;6096062;23;20014;-75
2023/09/28 10:37:07;;;;;;;15.60;7.05;;;;;;;;;;6096355;23;20002;-75
2023/09/28 10:39:33;;;;;;;13.30;6.75;;;;;;;;;;6096512;23;20402;-75
2023/09/28 10:42:27;;;;;;;12.65;5.97;;;;;;;;;;6122216;23;20010;-74
2023/09/28 10:44:54;;;;;;;9.90;5.95;;;;;;;;;;6118126;23;20041;-74
2023/09/28 10:47:21;;;;;;;10.52;6.35;;;;;;;;;;6122393;23;20060;-74
2023/09/28 10:49:48;;;;;;;11.30;6.45;;;;;;;;;;6095785;23;20093;-75
2023/09/28 10:52:14;;;;;;;15.13;6.85;;;;;;;;;;6095564;23;20016;-73
2023/09/28 10:54:39;;;;;;;14.73;6.20;;;;;;;;;;6122260;23;20324;-74
2023/09/28 10:57:06;;;;;;;12.13;6.60;;;;;;;;;;6121932;23;20057;-74
2023/09/28 10:59:31;;;;;;;14.50;7.25;;;;;;;;;;6122043;23;20422;-74
2023/09/28 11:01:57;;;;;;;9.93;6.63;;;;;;;;;;6096253;23;19998;-75
2023/09/28 11:04:23;;;;;;;12.90;8.38;;;;;;;;;;6123147;23;20001;-75
2023/09/28 11:06:49;;;;;;;11.80;6.15;;;;;;;;;;6096318;23;20002;-75
2023/09/28 11:09:19;;;;;;;9.93;6.95;;;;;;;;;;6122564;23;20002;-74
2023/09/28 11:11:45;;;;;;;12.10;7.18;;;;;;;;;;6095853;23;20096;-75
2023/09/28 11:14:10;;;;;;;14.88;7.35;;;;;;;;;;6096052;23;20156;-74
2023/09/28 11:16:38;;;;;;;9.00;5.95;;;;;;;;;;6121238;23;20404;-75
2023/09/28 11:19:04;;;;;;;10.23;5.90;;;;;;;;;;6095986;23;20041;-76
2023/09/28 11:21:31;;;;;;;9.73;6.70;;;;;;;;;;6096161;23;20010;-77
2023/09/28 11:23:56;;;;;;;13.82;6.55;;;;;;;;;;6122015;23;20002;-77
2023/09/28 11:26:23;;;;;;;13.63;6.63;;;;;;;;;;6095855;23;20060;-78
2023/09/28 11:28:50;;;;;;;15.70;11.30;;;;;;;;;;6095581;23;20052;-77
2023/09/28 11:31:15;;;;;;;9.65;6.47;;;;;;;;;;6095590;23;20002;-77
2023/09/28 11:33:44;;;;;;;12.65;5.68;;;;;;;;;;6121837;23;20085;-78
2023/09/28 11:36:16;;;;;;;8.18;6.22;;;;;;;;;;6096194;23;20010;-77
2023/09/28 11:38:42;;;;;;;11.65;6.20;;;;;;;;;;6097925;23;20017;-76
2023/09/28 11:41:08;;;;;;;9.13;5.28;;;;;;;;;;6123615;23;20048;-76
2023/09/28 11:43:45;;;;;;;10.88;6.13;;;;;;;;;;6124557;23;20002;-77
2023/09/28 11:46:12;;;;;;;9.48;5.97;;;;;;;;;;6097641;23;20005;-77
2023/09/28 11:48:38;;;;;;;12.55;5.90;;;;;;;;;;6098275;23;20324;-78
2023/09/28 11:51:08;;;;;;;7.55;5.10;;;;;;;;;;6124727;23;20002;-77
2023/09/28 11:53:40;;;;;;;12.07;5.50;;;;;;;;;;6124110;23;20388;-77
2023/09/28 11:56:11;;;;;;;9.57;6.90;;;;;;;;;;6099084;23;20061;-77
2023/09/28 11:58:42;;;;;;;11.82;6.40;;;;;;;;;;6099833;23;20010;-77
2023/09/28 12:01:10;;;;;;;13.23;6.25;;;;;;;;;;6132598;23;20084;-76
2023/09/28 12:03:38;;;;;;;13.98;5.43;;;;;;;;;;6116450;23;20069;-77
2023/09/28 12:06:07;;;;;;;12.05;6.28;;;;;;;;;;6138829;23;19994;-77
2023/09/28 12:08:33;;;;;;;12.45;6.72;;;;;;;;;;6138473;23;20085;-74
2023/09/28 12:10:59;;;;;;;9.15;5.60;;;;;;;;;;6138890;23;20005;-79
2023/09/28 12:13:28;;;;;;;15.35;5.45;;;;;;;;;;6098654;23;20030;-77
2023/09/28 12:15:55;;;;;;;12.30;5.47;;;;;;;;;;6087854;23;20050;-78
2023/09/28 12:18:24;;;;;;;13.25;5.57;;;;;;;;;;6065955;23;20006;-77
2023/09/28 12:20:50;;;;;;;9.75;5.28;;;;;;;;;;6063848;23;20033;-78
2023/09/28 12:23:19;;;;;;;11.50;5.97;;;;;;;;;;6066206;23;20053;-76
2023/09/28 12:25:50;;;;;;;11.15;5.75;;;;;;;;;;6063947;23;20317;-77
2023/09/28 12:28:15;;;;;;;18.58;6.45;;;;;;;;;;6064359;23;20006;-79
2023/09/28 12:30:41;;;;;;;10.98;5.80;;;;;;;;;;6040177;23;20026;-80
2023/09/28 12:33:08;;;;;;;8.00;5.70;;;;;;;;;;6065565;23;20030;-78
2023/09/28 12:35:35;;;;;;;9.70;6.38;;;;;;;;;;6066412;23;20003;-79
2023/09/28 12:38:04;;;;;;;8.60;5.45;;;;;;;;;;6063902;23;20018;-78
2023/09/28 12:40:32;;;;;;;13.65;6.50;;;;;;;;;;6064201;23;20014;-77
2023/09/28 12:43:20;;;;;;;8.80;5.85;;;;;;;;;;6065790;23;20097;-79
2023/09/28 12:45:49;;;;;;;14.57;6.00;;;;;;;;;;6065611;23;20035;-77
2023/09/28 12:48:18;;;;;;;8.52;5.63;;;;;;;;;;6040790;23;20161;-76
2023/09/28 12:50:47;;;;;;;7.05;5.10;;;;;;;;;;6063933;23;20417;-77
2023/09/28 12:53:14;;;;;;;8.68;5.50;;;;;;;;;;6066350;23;20437;-77
2023/09/28 12:55:40;;;;;;;17.08;6.82;;;;;;;;;;6065661;23;20003;-77
2023/09/28 12:58:11;;;;;;;10.52;6.07;;;;;;;;;;6063847;23;20003;-77
2023/09/28 13:00:38;;;;;;;7.78;5.78;;;;;;;;;;6063886;23;20420;-78
2023/09/28 13:03:09;;;;;;;8.38;5.35;;;;;;;;;;6066133;23;20018;-78
2023/09/28 13:05:40;;;;;;;14.75;5.80;;;;;;;;;;6064086;23;20031;-75
2023/09/28 13:08:07;;;;;;;;;;;;;;;;;;6064591;23;20058;-77
2023/09/28 13:10:35;;;;;;;10.30;5.93;;;;;;;;;;6064219;23;19921;-78
2023/09/28 13:13:05;;;;;;;11.45;4.78;;;;;;;;;;6066362;23;20083;-77
2023/09/28 13:15:38;;;;;;;6.88;5.97;;;;;;;;;;6077842;23;20014;-79
2023/09/28 13:18:08;;;;;;;8.88;5.43;;;;;;;;;;6098491;23;20010;-77
2023/09/28 13:20:38;;;;;;;11.68;5.85;;;;;;;;;;6101092;23;20013;-79
2023/09/28 13:23:05;;;;;;;8.30;5.05;;;;;;;;;;6103865;23;20494;-77
2023/09/28 13:25:32;;;;;;;11.50;5.22;;;;;;;;;;6132692;23;19997;-79
2023/09/28 13:27:57;;;;;;;8.02;4.47;;;;;;;;;;6104050;23;20076;-76
2023/09/28 13:30:24;;;;;;;8.95;5.60;;;;;;;;;;6103614;23;20010;-78
2023/09/28 13:32:51;;;;;;;4.95;4.45;;;;;;;;;;6129232;23;20017;-78
2023/09/28 13:35:19;;;;;;;9.32;5.55;;;;;;;;;;6125087;23;20017;-79
2023/09/28 13:37:51;;;;;;;11.20;4.82;;;;;;;;;;6123991;23;20005;-78
2023/09/28 13:40:28;;;;;;;8.82;4.95;;;;;;;;;;6125038;23;20009;-78
2023/09/28 13:42:59;;;;;;;6.60;5.05;;;;;;;;;;6124044;23;20016;-78
2023/09/28 13:45:29;;;;;;;9.10;4.57;;;;;;;;;;6123660;23;20008;-77
2023/09/28 13:47:55;;;;;;;10.85;5.03;;;;;;;;;;6124140;23;20010;-78
2023/09/28 13:50:27;;;;;;;10.38;5.10;;;;;;;;;;6123473;23;20001;-78
2023/09/28 13:52:55;;;;;;;12.30;5.28;;;;;;;;;;6122866;23;20085;-77
2023/09/28 13:55:28;;;;;;;8.32;5.10;;;;;;;;;;6123269;23;20002;-78
2023/09/28 13:57:57;;;;;;;8.65;4.88;;;;;;;;;;6122997;23;20006;-78
2023/09/28 14:00:33;;;;;;;7.93;4.85;;;;;;;;;;6097106;23;20005;-76
2023/09/28 14:02:59;;;;;;;10.75;4.78;;;;;;;;;;6097772;23;20092;-79
2023/09/28 14:05:25;;;;;;;11.55;5.22;;;;;;;;;;6123830;23;20026;-78
2023/09/28 14:07:52;;;;;;;7.35;4.40;;;;;;;;;;6123743;23;20046;-77
2023/09/28 14:10:19;;;;;;;9.00;5.07;;;;;;;;;;6106813;23;20088;-77
2023/09/28 14:12:51;;;;;;;10.52;4.95;;;;;;;;;;6148970;23;20029;-78
2023/09/28 14:15:17;;;;;;;6.55;5.05;;;;;;;;;;6108034;23;20024;-78
2023/09/28 14:17:43;;;;;;;9.75;4.32;;;;;;;;;;6107345;23;20109;-78
2023/09/28 14:20:10;;;;;;;9.52;5.35;;;;;;;;;;6108849;23;20108;-77
2023/09/28 14:22:40;;;;;;;9.13;5.05;;;;;;;;;;6136578;23;20006;-76
2023/09/28 14:25:06;;;;;;;10.15;4.93;;;;;;;;;;6101262;23;20006;-76
2023/09/28 14:27:35;;;;;;;9.63;4.28;;;;;;;;;;6124376;23;20029;-78
2023/09/28 14:30:01;;;;;;;13.85;5.03;;;;;;;;;;6096862;23;20092;-73